Time,TemperatureF,DewpointF,PressureIn,WindDirection,WindDirectionDegrees,WindSpeedMPH,WindSpeedGustMPH,Humidity,HourlyPrecipIn,Conditions,Clouds,dailyrainin,SoftwareType,DateUTC
2013-08-29 00:02:00,70.7,67.6,29.99,SSE,163,0.0,0.0,90,0.00,CLR,,0.00,WeatherDisplay:10.37,2013-08-29 05:02:00,
2013-08-29 00:07:00,70.6,67.5,29.99,SSE,163,0.0,0.0,90,0.00,CLR,,0.00,WeatherDisplay:10.37,2013-08-29 05:07:00,
2013-08-29 00:12:00,70.5,67.1,29.99,SSE,163,0.0,0.0,89,0.00,CLR,,0.00,WeatherDisplay:10.37,2013-08-29 05:12:00,
2013-08-29 00:17:00,70.4,67.3,29.99,SSE,163,0.0,0.0,90,0.00,CLR,,0.00,WeatherDisplay:10.37,2013-08-29 05:17:00,
2013-08-29 00:22:00,70.4,67.0,29.99,SSE,163,0.0,0.0,89,0.00,CLR,,0.00,WeatherDisplay:10.37,2013-08-29 05:22:00,
2013-08-29 00:27:00,70.3,66.9,29.99,SSE,163,0.0,0.0,89,0.00,CLR,,0.00,WeatherDisplay:10.37,2013-08-29 05:27:00,
2013-08-29 00:32:00,70.3,66.9,29.99,SSE,163,0.0,0.0,89,0.00,CLR,,0.00,WeatherDisplay:10.37,2013-08-29 05:32:00,
2013-08-29 00:37:00,70.0,66.6,29.99,SSE,163,0.0,0.0,89,0.00,CLR,,0.00,WeatherDisplay:10.37,2013-08-29 05:37:00,
2013-08-29 00:42:00,69.9,66.8,29.99,SSE,163,0.0,0.0,90,0.00,CLR,,0.00,WeatherDisplay:10.37,2013-08-29 05:42:00,
2013-08-29 00:47:00,69.8,66.7,30.00,SSE,163,0.0,0.0,90,0.00,CLR,,0.00,WeatherDisplay:10.37,2013-08-29 05:47:00,
2013-08-29 00:52:00,69.7,66.6,29.99,SSE,163,0.0,0.0,90,0.00,CLR,,0.00,WeatherDisplay:10.37,2013-08-29 05:52:00,
2013-08-29 00:57:00,69.5,66.4,30.00,SSE,163,0.0,0.0,90,0.00,CLR,,0.00,WeatherDisplay:10.37,2013-08-29 05:57:00,
2013-08-29 01:02:00,69.4,66.3,30.00,SSE,163,0.0,0.0,90,0.00,CLR,,0.00,WeatherDisplay:10.37,2013-08-29 06:02:00,
2013-08-29 01:07:00,69.2,66.1,30.00,SSE,163,0.0,0.0,90,0.00,CLR,,0.00,WeatherDisplay:10.37,2013-08-29 06:07:00,
2013-08-29 01:12:00,69.0,65.9,30.00,SSE,163,0.0,0.0,90,0.00,CLR,,0.00,WeatherDisplay:10.37,2013-08-29 06:12:00,
2013-08-29 01:17:00,68.8,65.7,30.00,SSE,163,0.0,0.0,90,0.00,CLR,,0.00,WeatherDisplay:10.37,2013-08-29 06:17:00,
2013-08-29 01:22:00,68.5,65.4,30.00,SSE,163,1.2,1.2,90,0.00,CLR,,0.00,WeatherDisplay:10.37,2013-08-29 06:22:00,
2013-08-29 01:27:00,68.2,65.2,30.00,SSE,163,1.2,1.2,90,0.00,CLR,,0.00,WeatherDisplay:10.37,2013-08-29 06:27:00,
2013-08-29 01:32:00,67.8,64.4,30.00,SSE,163,1.0,1.0,89,0.00,CLR,,0.00,WeatherDisplay:10.37,2013-08-29 06:32:00,
2013-08-29 01:37:00,67.5,64.5,30.00,SSE,163,2.3,2.3,90,0.00,CLR,,0.00,WeatherDisplay:10.37,2013-08-29 06:37:00,
2013-08-29 01:42:00,67.2,64.5,30.00,SSE,163,2.3,2.3,91,0.00,CLR,,0.00,WeatherDisplay:10.37,2013-08-29 06:42:00,
2013-08-29 01:47:00,67.0,64.3,30.00,SSE,163,2.3,2.3,91,0.00,CLR,,0.00,WeatherDisplay:10.37,2013-08-29 06:47:00,
2013-08-29 01:52:00,66.8,64.4,30.00,SSE,163,0.0,0.0,92,0.00,CLR,,0.00,WeatherDisplay:10.37,2013-08-29 06:52:00,
2013-08-29 01:57:00,66.8,64.4,30.00,SSE,163,1.2,1.2,92,0.00,CLR,,0.00,WeatherDisplay:10.37,2013-08-29 06:57:00,
2013-08-29 02:02:00,66.8,64.7,30.00,SSE,163,1.2,1.2,93,0.00,CLR,,0.00,WeatherDisplay:10.37,2013-08-29 07:02:00,
2013-08-29 02:07:00,66.9,64.8,30.00,SSE,163,1.2,0.0,93,0.00,CLR,,0.00,WeatherDisplay:10.37,2013-08-29 07:07:00,
2013-08-29 02:12:00,66.9,64.5,30.00,SSE,163,1.2,1.2,92,0.00,CLR,,0.00,WeatherDisplay:10.37,2013-08-29 07:12:00,
2013-08-29 02:17:00,66.8,64.4,30.00,SSE,163,1.2,1.2,92,0.00,CLR,,0.00,WeatherDisplay:10.37,2013-08-29 07:17:00,
2013-08-29 02:22:00,66.7,64.6,30.00,SSE,163,0.0,0.0,93,0.00,CLR,,0.00,WeatherDisplay:10.37,2013-08-29 07:22:00,
2013-08-29 02:27:00,66.6,64.2,30.00,SSE,163,0.0,0.0,92,0.00,CLR,,0.00,WeatherDisplay:10.37,2013-08-29 07:27:00,
2013-08-29 02:32:00,66.5,64.4,30.00,SSE,163,0.0,0.0,93,0.00,CLR,,0.00,WeatherDisplay:10.37,2013-08-29 07:32:00,
2013-08-29 02:37:00,66.4,64.3,30.00,SSE,163,1.2,1.2,93,0.00,CLR,,0.00,WeatherDisplay:10.37,2013-08-29 07:37:00,
2013-08-29 02:42:00,66.3,64.2,30.00,SSE,163,0.0,0.0,93,0.00,CLR,,0.00,WeatherDisplay:10.37,2013-08-29 07:42:00,
2013-08-29 02:47:00,66.3,64.2,30.00,SSE,163,0.0,0.0,93,0.00,CLR,,0.00,WeatherDisplay:10.37,2013-08-29 07:47:00,
2013-08-29 02:52:00,66.2,64.4,30.00,SSE,163,0.0,0.0,94,0.00,CLR,,0.00,WeatherDisplay:10.37,2013-08-29 07:52:00,
2013-08-29 02:57:00,66.1,64.3,30.00,SSE,163,0.0,0.0,94,0.00,CLR,,0.00,WeatherDisplay:10.37,2013-08-29 07:57:00,
2013-08-29 03:02:00,66.1,64.3,29.99,SSE,163,0.0,0.0,94,0.00,CLR,,0.00,WeatherDisplay:10.37,2013-08-29 08:02:00,
2013-08-29 03:07:00,66.0,64.2,30.00,SSE,163,0.0,0.0,94,0.00,CLR,,0.00,WeatherDisplay:10.37,2013-08-29 08:07:00,
2013-08-29 03:12:00,65.9,63.8,30.00,SSE,163,0.0,0.0,93,0.00,CLR,,0.00,WeatherDisplay:10.37,2013-08-29 08:12:00,
2013-08-29 03:17:00,65.8,64.0,30.00,SSE,163,0.0,0.0,94,0.00,CLR,,0.00,WeatherDisplay:10.37,2013-08-29 08:17:00,
2013-08-29 03:22:00,65.7,63.6,30.00,SSE,163,0.0,0.0,93,0.00,CLR,,0.00,WeatherDisplay:10.37,2013-08-29 08:22:00,
2013-08-29 03:27:00,65.6,63.8,30.00,SSE,163,0.0,0.0,94,0.00,CLR,,0.00,WeatherDisplay:10.37,2013-08-29 08:27:00,
2013-08-29 03:32:00,65.5,63.7,30.00,SSE,163,0.0,0.0,94,0.00,CLR,,0.00,WeatherDisplay:10.37,2013-08-29 08:32:00,
2013-08-29 03:37:00,65.3,63.2,29.99,SSE,163,0.0,0.0,93,0.00,CLR,,0.00,WeatherDisplay:10.37,2013-08-29 08:37:00,
2013-08-29 03:42:00,65.2,63.1,29.99,SSE,163,0.0,0.0,93,0.00,CLR,,0.00,WeatherDisplay:10.37,2013-08-29 08:42:00,
2013-08-29 03:47:00,65.1,63.0,29.99,SSE,163,0.0,0.0,93,0.00,CLR,,0.00,WeatherDisplay:10.37,2013-08-29 08:47:00,
2013-08-29 03:52:00,65.0,63.2,29.99,SSE,163,0.0,0.0,94,0.00,CLR,,0.00,WeatherDisplay:10.37,2013-08-29 08:52:00,
2013-08-29 03:57:00,64.9,63.1,29.99,SSE,163,0.0,0.6,94,0.00,CLR,,0.00,WeatherDisplay:10.37,2013-08-29 08:57:00,
2013-08-29 04:02:00,64.9,63.1,29.99,SSE,163,0.0,0.0,94,0.00,CLR,,0.00,WeatherDisplay:10.37,2013-08-29 09:02:00,
2013-08-29 04:07:00,64.9,63.1,29.99,SSE,163,0.0,0.0,94,0.00,CLR,,0.00,WeatherDisplay:10.37,2013-08-29 09:07:00,
2013-08-29 04:12:00,64.9,63.1,29.99,SSE,163,1.2,1.2,94,0.00,CLR,,0.00,WeatherDisplay:10.37,2013-08-29 09:12:00,
2013-08-29 04:17:00,64.9,63.1,29.99,SSE,163,1.2,1.2,94,0.00,CLR,,0.00,WeatherDisplay:10.37,2013-08-29 09:17:00,
2013-08-29 04:22:00,64.8,63.0,29.99,SSE,163,1.2,0.0,94,0.00,CLR,,0.00,WeatherDisplay:10.37,2013-08-29 09:22:00,
2013-08-29 04:27:00,64.7,62.9,29.98,SSE,163,1.2,1.2,94,0.00,CLR,,0.00,WeatherDisplay:10.37,2013-08-29 09:27:00,
2013-08-29 04:32:00,64.5,62.4,29.98,SSE,163,1.2,1.2,93,0.00,CLR,,0.00,WeatherDisplay:10.37,2013-08-29 09:32:00,
2013-08-29 04:37:00,64.3,62.2,29.99,SSE,163,0.0,0.0,93,0.00,CLR,,0.00,WeatherDisplay:10.37,2013-08-29 09:37:00,
2013-08-29 04:42:00,64.2,62.4,29.99,SSE,163,0.0,0.0,94,0.00,CLR,,0.00,WeatherDisplay:10.37,2013-08-29 09:42:00,
2013-08-29 04:47:00,64.1,62.6,29.99,SSE,163,0.0,0.0,95,0.00,CLR,,0.00,WeatherDisplay:10.37,2013-08-29 09:47:00,
2013-08-29 04:52:00,64.1,62.6,29.99,SSE,163,0.0,0.0,95,0.00,CLR,,0.00,WeatherDisplay:10.37,2013-08-29 09:52:00,
2013-08-29 04:57:00,64.1,62.6,29.99,SSE,163,0.0,0.0,95,0.00,CLR,,0.00,WeatherDisplay:10.37,2013-08-29 09:57:00,
2013-08-29 05:02:00,64.0,62.2,29.99,SE,136,2.3,2.3,94,0.00,CLR,,0.00,WeatherDisplay:10.37,2013-08-29 10:02:00,
2013-08-29 05:07:00,63.7,61.9,29.99,SE,136,1.2,1.2,94,0.00,CLR,,0.00,WeatherDisplay:10.37,2013-08-29 10:07:00,
2013-08-29 05:12:00,63.5,61.7,29.99,SE,136,2.3,2.3,94,0.00,CLR,,0.00,WeatherDisplay:10.37,2013-08-29 10:12:00,
2013-08-29 05:17:00,63.4,61.9,29.99,SE,136,1.2,1.2,95,0.00,CLR,,0.00,WeatherDisplay:10.37,2013-08-29 10:17:00,
2013-08-29 05:22:00,63.4,62.2,29.99,SE,136,0.0,0.0,96,0.00,CLR,,0.00,WeatherDisplay:10.37,2013-08-29 10:22:00,
2013-08-29 05:27:00,63.4,62.2,29.99,SE,136,0.0,0.0,96,0.00,CLR,,0.00,WeatherDisplay:10.37,2013-08-29 10:27:00,
2013-08-29 05:33:00,63.4,62.2,29.99,SE,136,0.0,0.0,96,0.00,CLR,,0.00,WeatherDisplay:10.37,2013-08-29 10:33:00,
2013-08-29 05:38:00,63.5,62.3,29.99,SE,136,0.0,0.0,96,0.00,CLR,,0.00,WeatherDisplay:10.37,2013-08-29 10:38:00,
2013-08-29 05:43:00,63.5,62.3,29.99,SE,136,0.0,0.0,96,0.00,CLR,,0.00,WeatherDisplay:10.37,2013-08-29 10:43:00,
2013-08-29 05:48:00,63.5,62.3,29.99,SE,136,0.0,0.0,96,0.00,CLR,,0.00,WeatherDisplay:10.37,2013-08-29 10:48:00,
2013-08-29 05:53:00,63.5,62.3,29.99,SE,136,0.0,0.0,96,0.00,CLR,,0.00,WeatherDisplay:10.37,2013-08-29 10:53:00,
2013-08-29 05:58:00,63.5,62.3,29.99,SE,136,0.0,0.0,96,0.00,CLR,,0.00,WeatherDisplay:10.37,2013-08-29 10:58:00,
2013-08-29 06:03:00,63.5,62.3,29.98,SE,136,0.0,0.0,96,0.00,CLR,,0.00,WeatherDisplay:10.37,2013-08-29 11:03:00,
2013-08-29 06:08:00,63.4,62.2,29.98,SE,136,0.0,0.0,96,0.00,CLR,,0.00,WeatherDisplay:10.37,2013-08-29 11:08:00,
2013-08-29 06:13:00,63.4,62.2,29.99,SE,136,1.2,1.2,96,0.00,CLR,,0.00,WeatherDisplay:10.37,2013-08-29 11:13:00,
2013-08-29 06:18:00,63.2,61.7,29.98,SE,131,1.2,1.2,95,0.00,CLR,,0.00,WeatherDisplay:10.37,2013-08-29 11:18:00,
2013-08-29 06:23:00,63.0,61.5,29.99,SE,131,0.0,0.0,95,0.00,CLR,,0.00,WeatherDisplay:10.37,2013-08-29 11:23:00,
2013-08-29 06:28:00,62.9,61.4,29.99,SE,131,0.0,0.0,95,0.00,CLR,,0.00,WeatherDisplay:10.37,2013-08-29 11:28:00,
2013-08-29 06:33:00,62.9,61.7,29.99,SE,131,0.0,0.0,96,0.00,CLR,,0.00,WeatherDisplay:10.37,2013-08-29 11:33:00,
2013-08-29 06:38:00,62.9,61.7,29.99,SE,131,0.0,0.2,96,0.00,CLR,,0.00,WeatherDisplay:10.37,2013-08-29 11:38:00,
2013-08-29 06:43:00,63.1,62.2,29.99,SE,131,1.2,1.2,97,0.00,CLR,,0.00,WeatherDisplay:10.37,2013-08-29 11:43:00,
2013-08-29 06:48:00,63.1,62.2,29.99,SE,131,0.0,0.0,97,0.00,CLR,,0.00,WeatherDisplay:10.37,2013-08-29 11:48:00,
2013-08-29 06:53:00,63.2,62.0,29.99,SE,131,1.2,1.2,96,0.00,CLR,,0.00,WeatherDisplay:10.37,2013-08-29 11:53:00,
2013-08-29 06:58:00,63.2,62.3,29.99,SE,131,0.0,0.0,97,0.00,CLR,,0.00,WeatherDisplay:10.37,2013-08-29 11:58:00,
2013-08-29 07:03:00,63.3,62.4,29.99,SE,131,1.2,1.2,97,0.00,CLR,,0.00,WeatherDisplay:10.37,2013-08-29 12:03:00,
2013-08-29 07:08:00,63.4,62.5,29.99,SE,131,1.2,1.2,97,0.00,CLR,,0.00,WeatherDisplay:10.37,2013-08-29 12:08:00,
2013-08-29 07:13:00,63.4,62.5,29.99,SE,131,1.2,1.2,97,0.00,CLR,,0.00,WeatherDisplay:10.37,2013-08-29 12:13:00,
2013-08-29 07:18:00,63.4,62.2,29.99,SE,131,0.0,0.0,96,0.00,CLR,,0.00,WeatherDisplay:10.37,2013-08-29 12:18:00,
2013-08-29 07:23:00,63.5,62.3,30.00,SE,131,0.0,0.0,96,0.00,CLR,,0.00,WeatherDisplay:10.37,2013-08-29 12:23:00,
2013-08-29 07:28:00,63.5,62.3,29.99,SE,131,0.0,0.0,96,0.00,CLR,,0.00,WeatherDisplay:10.37,2013-08-29 12:28:00,
2013-08-29 07:33:00,63.6,62.4,30.00,SE,131,2.3,2.3,96,0.00,CLR,,0.00,WeatherDisplay:10.37,2013-08-29 12:33:00,
2013-08-29 07:38:00,63.6,62.4,30.00,SE,131,0.0,0.0,96,0.00,CLR,,0.00,WeatherDisplay:10.37,2013-08-29 12:38:00,
2013-08-29 07:43:00,63.8,62.6,30.00,SE,131,0.0,0.0,96,0.00,CLR,,0.00,WeatherDisplay:10.37,2013-08-29 12:43:00,
2013-08-29 07:48:00,64.0,63.1,30.00,SE,131,1.0,0.0,97,0.00,CLR,,0.00,WeatherDisplay:10.37,2013-08-29 12:48:00,
2013-08-29 07:53:00,64.4,63.5,30.00,SE,131,1.2,1.2,97,0.00,CLR,,0.00,WeatherDisplay:10.37,2013-08-29 12:53:00,
2013-08-29 07:58:00,64.8,64.2,30.00,SE,131,2.3,2.3,98,0.00,CLR,,0.00,WeatherDisplay:10.37,2013-08-29 12:58:00,
2013-08-29 08:03:00,65.3,64.7,30.00,SE,130,3.5,3.5,98,0.00,CLR,,0.00,WeatherDisplay:10.37,2013-08-29 13:03:00,
2013-08-29 08:08:00,65.8,64.9,30.00,SE,131,1.2,1.2,97,0.00,CLR,,0.00,WeatherDisplay:10.37,2013-08-29 13:08:00,
2013-08-29 08:13:00,66.2,65.3,30.00,SE,131,1.2,1.2,97,0.00,CLR,,0.00,WeatherDisplay:10.37,2013-08-29 13:13:00,
2013-08-29 08:18:00,66.8,65.9,30.00,SE,131,2.0,2.0,97,0.00,CLR,,0.00,WeatherDisplay:10.37,2013-08-29 13:18:00,
2013-08-29 08:23:00,67.7,66.5,30.00,SE,131,2.3,2.3,96,0.00,CLR,,0.00,WeatherDisplay:10.37,2013-08-29 13:23:00,
2013-08-29 08:28:00,68.5,67.3,30.00,SE,131,3.5,3.5,96,0.00,CLR,,0.00,WeatherDisplay:10.37,2013-08-29 13:28:00,
2013-08-29 08:33:00,69.2,67.7,30.00,SE,131,3.5,3.5,95,0.00,CLR,,0.00,WeatherDisplay:10.37,2013-08-29 13:33:00,
2013-08-29 08:38:00,69.8,68.0,30.00,SSE,150,2.3,2.3,94,0.00,CLR,,0.00,WeatherDisplay:10.37,2013-08-29 13:38:00,
2013-08-29 08:43:00,70.3,68.5,30.00,SE,140,3.5,3.5,94,0.00,CLR,,0.00,WeatherDisplay:10.37,2013-08-29 13:43:00,
2013-08-29 08:48:00,70.9,69.1,30.00,SE,144,4.0,4.0,94,0.00,CLR,,0.00,WeatherDisplay:10.37,2013-08-29 13:48:00,
2013-08-29 08:53:00,71.5,69.4,30.00,SE,127,3.5,3.5,93,0.00,CLR,,0.00,WeatherDisplay:10.37,2013-08-29 13:53:00,
2013-08-29 08:58:00,72.2,69.7,29.99,SE,134,4.6,4.6,92,0.00,CLR,,0.00,WeatherDisplay:10.37,2013-08-29 13:58:00,
2013-08-29 09:03:00,72.9,70.1,29.99,SSE,161,5.8,5.8,91,0.00,CLR,,0.00,WeatherDisplay:10.37,2013-08-29 14:03:00,
2013-08-29 09:08:00,73.6,70.5,30.00,SSE,153,3.5,3.5,90,0.00,CLR,,0.00,WeatherDisplay:10.37,2013-08-29 14:08:00,
2013-08-29 09:13:00,74.2,70.7,30.00,ESE,102,3.5,3.5,89,0.00,CLR,,0.00,WeatherDisplay:10.37,2013-08-29 14:13:00,
2013-08-29 09:18:00,74.6,70.8,29.99,SSE,165,5.8,5.8,88,0.00,CLR,,0.00,WeatherDisplay:10.37,2013-08-29 14:18:00,
2013-08-29 09:23:00,75.0,71.2,29.99,East,93,3.5,3.5,88,0.00,CLR,,0.00,WeatherDisplay:10.37,2013-08-29 14:23:00,
2013-08-29 09:28:00,75.4,71.3,29.99,SSE,147,4.6,4.6,87,0.00,CLR,,0.00,WeatherDisplay:10.37,2013-08-29 14:28:00,
2013-08-29 09:33:00,75.8,71.7,30.00,SE,133,3.5,3.5,87,0.00,CLR,,0.00,WeatherDisplay:10.37,2013-08-29 14:33:00,
2013-08-29 09:38:00,76.2,71.4,29.99,SSE,150,3.5,3.5,85,0.00,CLR,,0.00,WeatherDisplay:10.37,2013-08-29 14:38:00,
2013-08-29 09:43:00,77.0,72.1,29.99,SSE,151,3.5,3.5,85,0.00,CLR,,0.00,WeatherDisplay:10.37,2013-08-29 14:43:00,
2013-08-29 09:48:00,77.8,72.6,29.99,SSE,148,4.6,4.6,84,0.00,CLR,,0.00,WeatherDisplay:10.37,2013-08-29 14:48:00,
2013-08-29 09:53:00,78.4,72.4,29.99,SE,125,4.6,4.6,82,0.00,CLR,,0.00,WeatherDisplay:10.37,2013-08-29 14:53:00,
2013-08-29 09:58:00,78.7,72.7,29.99,SE,140,8.1,8.1,82,0.00,CLR,,0.00,WeatherDisplay:10.37,2013-08-29 14:58:00,
2013-08-29 10:03:00,79.1,72.8,29.99,South,175,3.5,3.5,81,0.00,CLR,,0.00,WeatherDisplay:10.37,2013-08-29 15:03:00,
2013-08-29 10:08:00,79.6,73.3,29.98,SSE,151,3.5,3.5,81,0.00,CLR,,0.00,WeatherDisplay:10.37,2013-08-29 15:08:00,
2013-08-29 10:14:00,80.2,73.5,29.99,SE,136,3.5,3.5,80,0.00,CLR,,0.00,WeatherDisplay:10.37,2013-08-29 15:14:00,
2013-08-29 10:19:00,81.0,73.5,29.99,ESE,123,3.5,3.5,78,0.00,CLR,,0.00,WeatherDisplay:10.37,2013-08-29 15:19:00,
2013-08-29 10:24:00,81.3,73.4,29.99,SE,143,4.6,4.6,77,0.00,CLR,,0.00,WeatherDisplay:10.37,2013-08-29 15:24:00,
2013-08-29 10:29:00,81.9,74.0,29.99,ENE,67,3.5,3.5,77,0.00,CLR,,0.00,WeatherDisplay:10.37,2013-08-29 15:29:00,
2013-08-29 10:34:00,82.7,74.4,29.99,NE,36,2.3,2.3,76,0.00,CLR,,0.00,WeatherDisplay:10.37,2013-08-29 15:34:00,
2013-08-29 10:39:00,83.3,74.1,29.99,SSE,152,3.5,3.5,74,0.00,CLR,,0.00,WeatherDisplay:10.37,2013-08-29 15:39:00,
2013-08-29 10:44:00,83.7,74.9,29.99,ESE,120,4.0,4.0,75,0.00,CLR,,0.00,WeatherDisplay:10.37,2013-08-29 15:44:00,
2013-08-29 10:49:00,84.3,75.5,29.99,SSE,151,4.6,4.6,75,0.00,CLR,,0.00,WeatherDisplay:10.37,2013-08-29 15:49:00,
2013-08-29 10:54:00,84.8,74.8,29.99,SE,145,8.1,8.1,72,0.00,CLR,,0.00,WeatherDisplay:10.37,2013-08-29 15:54:00,
2013-08-29 10:59:00,84.8,74.8,29.99,SE,140,3.5,3.5,72,0.00,CLR,,0.00,WeatherDisplay:10.37,2013-08-29 15:59:00,
2013-08-29 11:00:00,77.3,71.7,29.91,SSE,163,0.0,1.0,83,0.00,CLR,,0.00,WeatherDisplay:10.37,2013-08-29 16:00:00,
2013-08-29 11:04:00,85.2,75.1,29.99,ESE,114,4.6,4.6,72,0.00,CLR,,0.00,WeatherDisplay:10.37,2013-08-29 16:04:00,
2013-08-29 11:09:00,85.7,75.6,29.99,South,176,3.5,3.5,72,0.00,CLR,,0.00,WeatherDisplay:10.37,2013-08-29 16:09:00,
2013-08-29 11:14:00,86.2,75.7,29.98,SE,132,5.0,5.0,71,0.00,CLR,,0.00,WeatherDisplay:10.37,2013-08-29 16:14:00,
2013-08-29 11:19:00,86.3,75.4,29.99,SSE,159,4.0,4.0,70,0.00,CLR,,0.00,WeatherDisplay:10.37,2013-08-29 16:19:00,
2013-08-29 11:24:00,86.8,76.3,29.98,ESE,116,3.0,3.0,71,0.00,CLR,,0.00,WeatherDisplay:10.37,2013-08-29 16:24:00,
2013-08-29 11:29:00,86.9,75.1,29.98,East,81,4.6,4.6,68,0.00,CLR,,0.00,WeatherDisplay:10.37,2013-08-29 16:29:00,
2013-08-29 11:34:00,87.1,75.3,29.98,SE,135,8.1,8.1,68,0.00,CLR,,0.00,WeatherDisplay:10.37,2013-08-29 16:34:00,
2013-08-29 11:35:00,75.0,69.8,29.91,SSE,160,0.0,1.0,84,0.00,CLR,,0.00,WeatherDisplay:10.37,2013-08-29 16:35:00,
2013-08-29 11:39:00,87.1,75.7,29.98,ENE,63,3.5,3.5,69,0.00,CLR,,0.00,WeatherDisplay:10.37,2013-08-29 16:39:00,
2013-08-29 11:40:00,75.0,69.8,29.91,SSE,158,0.0,1.0,84,0.00,CLR,,0.00,WeatherDisplay:10.37,2013-08-29 16:40:00,
2013-08-29 11:44:00,87.2,75.8,29.98,East,86,5.8,5.8,69,0.00,CLR,,0.00,WeatherDisplay:10.37,2013-08-29 16:44:00,
2013-08-29 11:45:00,75.0,69.8,29.91,SSE,158,0.0,1.0,84,0.00,CLR,,0.00,WeatherDisplay:10.37,2013-08-29 16:45:00,
2013-08-29 11:49:00,87.5,76.1,29.98,East,90,9.2,9.2,69,0.00,CLR,,0.00,WeatherDisplay:10.37,2013-08-29 16:49:00,
2013-08-29 11:50:00,75.0,69.8,29.91,SSE,158,0.0,1.0,84,0.00,CLR,,0.00,WeatherDisplay:10.37,2013-08-29 16:50:00,
2013-08-29 11:54:00,87.8,75.5,29.97,SE,125,5.0,5.1,67,0.00,CLR,,0.00,WeatherDisplay:10.37,2013-08-29 16:54:00,
2013-08-29 11:55:00,75.0,69.8,29.91,SSE,158,0.0,1.0,84,0.00,CLR,,0.00,WeatherDisplay:10.37,2013-08-29 16:55:00,
2013-08-29 11:59:00,87.8,75.0,29.97,SSE,163,9.2,9.2,66,0.00,CLR,,0.00,WeatherDisplay:10.37,2013-08-29 16:59:00,
2013-08-29 12:00:00,75.0,69.8,29.91,SSE,158,0.0,1.0,84,0.00,CLR,,0.00,WeatherDisplay:10.37,2013-08-29 17:00:00,
2013-08-29 12:04:00,87.9,75.6,29.97,SE,141,8.1,8.1,67,0.00,CLR,,0.00,WeatherDisplay:10.37,2013-08-29 17:04:00,
2013-08-29 12:05:00,73.4,70.0,29.91,SSE,158,0.0,1.0,89,0.00,CLR,,0.00,WeatherDisplay:10.37,2013-08-29 17:05:00,
2013-08-29 12:09:00,88.4,74.7,29.97,SE,142,9.2,9.2,64,0.00,CLR,,0.00,WeatherDisplay:10.37,2013-08-29 17:09:00,
2013-08-29 12:10:00,73.4,70.0,29.91,SSE,158,0.0,1.0,89,0.00,CLR,,0.00,WeatherDisplay:10.37,2013-08-29 17:10:00,
2013-08-29 12:14:00,88.6,74.4,29.97,SE,140,11.5,11.5,63,0.00,CLR,,0.00,WeatherDisplay:10.37,2013-08-29 17:14:00,
2013-08-29 12:15:00,73.4,70.0,29.91,SSE,158,0.0,1.0,89,0.00,CLR,,0.00,WeatherDisplay:10.37,2013-08-29 17:15:00,
2013-08-29 12:19:00,88.8,73.6,29.97,SSE,155,10.4,10.4,61,0.00,CLR,,0.00,WeatherDisplay:10.37,2013-08-29 17:19:00,
2013-08-29 12:20:00,73.4,70.0,29.91,SSE,158,0.0,1.0,89,0.00,CLR,,0.00,WeatherDisplay:10.37,2013-08-29 17:20:00,
2013-08-29 12:24:00,89.1,74.9,29.97,SE,135,8.1,8.1,63,0.00,CLR,,0.00,WeatherDisplay:10.37,2013-08-29 17:24:00,
2013-08-29 12:25:00,73.4,70.0,29.91,SSE,158,0.0,1.0,89,0.00,CLR,,0.00,WeatherDisplay:10.37,2013-08-29 17:25:00,
2013-08-29 12:29:00,89.5,74.3,29.96,ESE,102,9.2,9.2,61,0.00,CLR,,0.00,WeatherDisplay:10.37,2013-08-29 17:29:00,
2013-08-29 12:30:00,73.4,70.0,29.91,SSE,158,0.0,1.0,89,0.00,CLR,,0.00,WeatherDisplay:10.37,2013-08-29 17:30:00,
2013-08-29 12:34:00,89.9,74.6,29.96,SE,140,10.4,10.4,61,0.00,CLR,,0.00,WeatherDisplay:10.37,2013-08-29 17:34:00,
2013-08-29 12:35:00,72.5,69.4,29.90,SSE,158,0.0,1.0,90,0.00,CLR,,0.00,WeatherDisplay:10.37,2013-08-29 17:35:00,
2013-08-29 12:39:00,89.8,74.1,29.96,ESE,113,6.9,6.9,60,0.00,CLR,,0.00,WeatherDisplay:10.37,2013-08-29 17:39:00,
2013-08-29 12:40:00,72.5,69.4,29.90,SSE,158,0.0,1.0,90,0.00,CLR,,0.00,WeatherDisplay:10.37,2013-08-29 17:40:00,
2013-08-29 12:44:00,90.2,74.9,29.96,SE,134,10.0,10.0,61,0.00,CLR,,0.00,WeatherDisplay:10.37,2013-08-29 17:44:00,
2013-08-29 12:45:00,72.5,69.4,29.90,SSE,158,0.0,1.0,90,0.00,CLR,,0.00,WeatherDisplay:10.37,2013-08-29 17:45:00,
2013-08-29 12:49:00,90.5,73.7,29.96,SSE,152,10.4,10.4,58,0.00,CLR,,0.00,WeatherDisplay:10.37,2013-08-29 17:49:00,
2013-08-29 12:50:00,72.5,69.4,29.90,SSE,158,0.0,1.0,90,0.00,CLR,,0.00,WeatherDisplay:10.37,2013-08-29 17:50:00,
2013-08-29 12:54:00,90.6,74.3,29.95,SE,125,6.9,6.9,59,0.00,CLR,,0.00,WeatherDisplay:10.37,2013-08-29 17:54:00,
2013-08-29 12:55:00,72.5,69.4,29.90,SSE,158,0.0,1.0,90,0.00,CLR,,0.00,WeatherDisplay:10.37,2013-08-29 17:55:00,
2013-08-29 12:59:00,90.8,74.0,29.95,SE,144,9.0,9.0,58,0.00,CLR,,0.00,WeatherDisplay:10.37,2013-08-29 17:59:00,
2013-08-29 13:00:00,72.5,69.4,29.90,SSE,158,0.0,1.0,90,0.00,CLR,,0.00,WeatherDisplay:10.37,2013-08-29 18:00:00,
2013-08-29 13:04:00,90.8,74.5,29.95,ESE,123,10.4,10.4,59,0.00,CLR,,0.00,WeatherDisplay:10.37,2013-08-29 18:04:00,
2013-08-29 13:09:00,91.1,73.2,29.95,SSE,166,11.5,11.5,56,0.00,CLR,,0.00,WeatherDisplay:10.37,2013-08-29 18:09:00,
2013-08-29 13:14:00,91.4,74.0,29.94,East,82,9.2,9.2,57,0.00,CLR,,0.00,WeatherDisplay:10.37,2013-08-29 18:14:00,
2013-08-29 13:19:00,91.5,73.1,29.94,SE,133,11.5,11.5,55,0.00,CLR,,0.00,WeatherDisplay:10.37,2013-08-29 18:19:00,
2013-08-29 13:24:00,91.3,73.4,29.94,South,169,11.5,11.5,56,0.00,CLR,,0.00,WeatherDisplay:10.37,2013-08-29 18:24:00,
2013-08-29 13:29:00,91.4,73.5,29.94,South,173,12.7,12.7,56,0.00,CLR,,0.00,WeatherDisplay:10.37,2013-08-29 18:29:00,
2013-08-29 13:34:00,91.9,74.0,29.94,SSE,157,6.9,6.9,56,0.00,CLR,,0.00,WeatherDisplay:10.37,2013-08-29 18:34:00,
2013-08-29 13:39:00,92.0,74.6,29.94,East,95,6.9,6.9,57,0.00,CLR,,0.00,WeatherDisplay:10.37,2013-08-29 18:39:00,
2013-08-29 13:44:00,92.2,73.7,29.94,SE,138,12.7,12.7,55,0.00,CLR,,0.00,WeatherDisplay:10.37,2013-08-29 18:44:00,
2013-08-29 13:49:00,92.1,73.6,29.94,SSE,152,10.4,10.4,55,0.00,CLR,,0.00,WeatherDisplay:10.37,2013-08-29 18:49:00,
2013-08-29 13:54:00,92.3,74.3,29.94,SE,145,5.0,12.0,56,0.00,CLR,,0.00,WeatherDisplay:10.37,2013-08-29 18:54:00,
2013-08-29 13:59:00,92.6,74.6,29.93,SE,133,5.0,10.0,56,0.00,CLR,,0.00,WeatherDisplay:10.37,2013-08-29 18:59:00,
2013-08-29 14:04:00,93.1,74.0,29.93,SSE,153,10.4,10.4,54,0.00,CLR,,0.00,WeatherDisplay:10.37,2013-08-29 19:04:00,
2013-08-29 14:09:00,93.3,74.2,29.93,SE,134,10.4,10.4,54,0.00,CLR,,0.00,WeatherDisplay:10.37,2013-08-29 19:09:00,
2013-08-29 14:14:00,93.6,73.9,29.93,SE,141,6.0,12.0,53,0.00,CLR,,0.00,WeatherDisplay:10.37,2013-08-29 19:14:00,
2013-08-29 14:19:00,93.7,72.3,29.93,SSW,201,5.8,5.8,50,0.00,CLR,,0.00,WeatherDisplay:10.37,2013-08-29 19:19:00,
2013-08-29 14:24:00,93.8,71.1,29.93,SSE,157,8.0,16.0,48,0.00,CLR,,0.00,WeatherDisplay:10.37,2013-08-29 19:24:00,
2013-08-29 14:29:00,93.8,72.3,29.93,SE,128,5.8,5.8,50,0.00,CLR,,0.00,WeatherDisplay:10.37,2013-08-29 19:29:00,
2013-08-29 14:34:00,93.9,71.8,29.93,SE,132,8.1,8.1,49,0.00,CLR,,0.00,WeatherDisplay:10.37,2013-08-29 19:34:00,
2013-08-29 14:39:00,94.0,71.9,29.93,SE,140,3.0,12.0,49,0.00,CLR,,0.00,WeatherDisplay:10.37,2013-08-29 19:39:00,
2013-08-29 14:44:00,94.3,72.2,29.92,ESE,107,11.5,11.5,49,0.00,CLR,,0.00,WeatherDisplay:10.37,2013-08-29 19:44:00,
2013-08-29 14:49:00,94.3,72.2,29.92,SSE,159,12.7,12.7,49,0.00,CLR,,0.00,WeatherDisplay:10.37,2013-08-29 19:49:00,
2013-08-29 14:54:00,94.3,72.2,29.92,SE,136,7.0,13.0,49,0.00,CLR,,0.00,WeatherDisplay:10.37,2013-08-29 19:54:00,
2013-08-29 14:59:00,94.4,71.1,29.92,SSE,168,8.1,8.1,47,0.00,CLR,,0.00,WeatherDisplay:10.37,2013-08-29 19:59:00,
2013-08-29 15:04:00,94.7,70.1,29.92,SSE,147,2.0,12.0,45,0.00,CLR,,0.00,WeatherDisplay:10.37,2013-08-29 20:04:00,
2013-08-29 15:09:00,95.1,70.4,29.92,SSE,148,6.0,12.0,45,0.00,CLR,,0.00,WeatherDisplay:10.37,2013-08-29 20:09:00,
2013-08-29 15:14:00,95.0,70.3,29.92,East,96,6.9,6.9,45,0.00,CLR,,0.00,WeatherDisplay:10.37,2013-08-29 20:14:00,
2013-08-29 15:19:00,95.2,69.8,29.92,SE,144,8.0,13.0,44,0.00,CLR,,0.00,WeatherDisplay:10.37,2013-08-29 20:19:00,
2013-08-29 15:24:00,95.1,70.4,29.92,SE,146,7.0,12.0,45,0.00,CLR,,0.00,WeatherDisplay:10.37,2013-08-29 20:24:00,
2013-08-29 15:29:00,95.2,69.8,29.91,ESE,113,11.5,11.5,44,0.00,CLR,,0.00,WeatherDisplay:10.37,2013-08-29 20:29:00,
2013-08-29 15:34:00,95.3,70.6,29.92,South,189,13.8,13.8,45,0.00,CLR,,0.00,WeatherDisplay:10.37,2013-08-29 20:34:00,
2013-08-29 15:39:00,95.3,69.9,29.91,SSE,147,6.9,6.9,44,0.00,CLR,,0.00,WeatherDisplay:10.37,2013-08-29 20:39:00,
2013-08-29 15:44:00,95.5,70.1,29.91,SSW,195,11.5,11.5,44,0.00,CLR,,0.00,WeatherDisplay:10.37,2013-08-29 20:44:00,
2013-08-29 15:49:00,95.6,69.5,29.91,SSE,163,6.0,10.0,43,0.00,CLR,,0.00,WeatherDisplay:10.37,2013-08-29 20:49:00,
2013-08-29 15:54:00,95.7,70.3,29.91,SSE,165,9.0,9.0,44,0.00,CLR,,0.00,WeatherDisplay:10.37,2013-08-29 20:54:00,
2013-08-29 15:59:00,95.8,69.0,29.91,SSE,154,6.0,10.0,42,0.00,CLR,,0.00,WeatherDisplay:10.37,2013-08-29 20:59:00,
2013-08-29 16:04:00,95.6,69.6,29.91,SSE,151,6.0,9.0,43,0.00,CLR,,0.00,WeatherDisplay:10.37,2013-08-29 21:04:00,
2013-08-29 16:09:00,95.7,69.6,29.91,SE,145,8.0,8.0,43,0.00,CLR,,0.00,WeatherDisplay:10.37,2013-08-29 21:09:00,
2013-08-29 16:14:00,95.4,69.3,29.91,SSE,158,6.0,9.0,43,0.00,CLR,,0.00,WeatherDisplay:10.37,2013-08-29 21:14:00,
2013-08-29 16:19:00,95.3,69.9,29.91,SSE,157,6.0,12.0,44,0.00,CLR,,0.00,WeatherDisplay:10.37,2013-08-29 21:19:00,
2013-08-29 16:24:00,95.3,69.9,29.90,SE,126,5.0,5.0,44,0.00,CLR,,0.00,WeatherDisplay:10.37,2013-08-29 21:24:00,
2013-08-29 16:29:00,95.4,69.4,29.90,SSE,151,5.0,10.0,43,0.00,CLR,,0.00,WeatherDisplay:10.37,2013-08-29 21:29:00,
2013-08-29 16:34:00,95.6,69.5,29.90,SE,134,7.0,7.0,43,0.00,CLR,,0.00,WeatherDisplay:10.37,2013-08-29 21:34:00,
2013-08-29 16:39:00,95.6,70.2,29.90,NNW,346,3.5,3.5,44,0.00,CLR,,0.00,WeatherDisplay:10.37,2013-08-29 21:39:00,
2013-08-29 16:44:00,95.6,68.8,29.90,SSE,164,2.0,10.0,42,0.00,CLR,,0.00,WeatherDisplay:10.37,2013-08-29 21:44:00,
2013-08-29 16:49:00,95.9,67.7,29.90,SSW,209,4.6,4.6,40,0.00,CLR,,0.00,WeatherDisplay:10.37,2013-08-29 21:49:00,
2013-08-29 16:54:00,96.0,67.0,29.90,SW,226,5.8,5.8,39,0.00,CLR,,0.00,WeatherDisplay:10.37,2013-08-29 21:54:00,
2013-08-29 16:59:00,96.1,67.9,29.90,SW,230,2.0,4.0,40,0.00,CLR,,0.00,WeatherDisplay:10.37,2013-08-29 21:59:00,
2013-08-29 17:04:00,95.9,68.4,29.90,SSE,166,4.0,4.0,41,0.00,CLR,,0.00,WeatherDisplay:10.37,2013-08-29 22:04:00,
2013-08-29 17:09:00,95.7,68.2,29.90,SSE,163,3.5,3.5,41,0.00,CLR,,0.00,WeatherDisplay:10.37,2013-08-29 22:09:00,
2013-08-29 17:14:00,95.5,67.3,29.90,South,173,3.0,7.0,40,0.00,CLR,,0.00,WeatherDisplay:10.37,2013-08-29 22:14:00,
2013-08-29 17:19:00,95.2,68.5,29.90,South,171,4.0,4.0,42,0.00,CLR,,0.00,WeatherDisplay:10.37,2013-08-29 22:19:00,
2013-08-29 17:24:00,95.1,69.7,29.90,SSW,201,2.0,5.0,44,0.00,CLR,,0.00,WeatherDisplay:10.37,2013-08-29 22:24:00,
2013-08-29 17:29:00,94.9,70.2,29.90,ESE,120,6.9,6.9,45,0.00,CLR,,0.00,WeatherDisplay:10.37,2013-08-29 22:29:00,
2013-08-29 17:34:00,94.8,69.5,29.90,SE,143,3.5,3.5,44,0.00,CLR,,0.00,WeatherDisplay:10.37,2013-08-29 22:34:00,
2013-08-29 17:39:00,94.7,70.1,29.90,SSE,152,2.0,3.0,45,0.00,CLR,,0.00,WeatherDisplay:10.37,2013-08-29 22:39:00,
2013-08-29 17:44:00,94.6,70.0,29.90,SE,146,1.0,7.0,45,0.00,CLR,,0.00,WeatherDisplay:10.37,2013-08-29 22:44:00,
2013-08-29 17:49:00,94.5,70.5,29.90,SSW,213,3.5,3.5,46,0.00,CLR,,0.00,WeatherDisplay:10.37,2013-08-29 22:49:00,
2013-08-29 17:54:00,94.4,69.8,29.90,South,170,3.0,8.0,45,0.00,CLR,,0.00,WeatherDisplay:10.37,2013-08-29 22:54:00,
2013-08-29 17:59:00,94.2,70.2,29.90,SSE,153,2.3,2.3,46,0.00,CLR,,0.00,WeatherDisplay:10.37,2013-08-29 22:59:00,
2013-08-29 18:04:00,94.1,69.5,29.90,SSW,203,3.5,3.5,45,0.00,CLR,,0.00,WeatherDisplay:10.37,2013-08-29 23:04:00,
2013-08-29 18:09:00,93.8,68.6,29.90,SSE,165,4.6,4.6,44,0.00,CLR,,0.00,WeatherDisplay:10.37,2013-08-29 23:09:00,
2013-08-29 18:14:00,93.6,69.7,29.90,SSE,159,3.5,3.5,46,0.00,CLR,,0.00,WeatherDisplay:10.37,2013-08-29 23:14:00,
2013-08-29 18:19:00,93.4,70.2,29.90,SSE,167,1.0,7.0,47,0.00,CLR,,0.00,WeatherDisplay:10.37,2013-08-29 23:19:00,
2013-08-29 18:24:00,93.2,70.6,29.90,South,170,3.0,5.0,48,0.00,CLR,,0.00,WeatherDisplay:10.37,2013-08-29 23:24:00,
2013-08-29 18:29:00,93.0,70.4,29.89,South,170,4.6,4.6,48,0.00,CLR,,0.00,WeatherDisplay:10.37,2013-08-29 23:29:00,
2013-08-29 18:34:00,92.9,70.3,29.89,SSE,164,2.0,5.0,48,0.00,CLR,,0.00,WeatherDisplay:10.37,2013-08-29 23:34:00,
2013-08-29 18:39:00,92.7,70.7,29.89,SSE,159,2.3,2.5,49,0.00,CLR,,0.00,WeatherDisplay:10.37,2013-08-29 23:39:00,
2013-08-29 18:44:00,92.5,71.2,29.89,SSE,150,3.5,3.5,50,0.00,CLR,,0.00,WeatherDisplay:10.37,2013-08-29 23:44:00,
2013-08-29 18:49:00,92.3,71.0,29.89,SSE,164,1.0,4.0,50,0.00,CLR,,0.00,WeatherDisplay:10.37,2013-08-29 23:49:00,
2013-08-29 18:54:00,92.0,70.7,29.89,SSE,160,4.0,4.0,50,0.00,CLR,,0.00,WeatherDisplay:10.37,2013-08-29 23:54:00,
2013-08-29 18:59:00,91.7,71.0,29.89,South,169,5.0,5.0,51,0.00,CLR,,0.00,WeatherDisplay:10.37,2013-08-29 23:59:00,
2013-08-29 19:04:00,91.4,70.7,29.89,SSE,161,2.0,5.0,51,0.00,CLR,,0.00,WeatherDisplay:10.37,2013-08-30 00:04:00,
2013-08-29 19:09:00,91.1,71.0,29.89,SSE,159,2.3,2.3,52,0.00,CLR,,0.00,WeatherDisplay:10.37,2013-08-30 00:09:00,
2013-08-29 19:14:00,90.8,71.3,29.89,SSE,159,2.3,2.3,53,0.00,CLR,,0.00,WeatherDisplay:10.37,2013-08-30 00:14:00,
2013-08-29 19:19:00,90.6,71.7,29.89,SSE,159,2.0,2.0,54,0.00,CLR,,0.00,WeatherDisplay:10.37,2013-08-30 00:19:00,
2013-08-29 19:24:00,90.3,71.9,29.89,SSE,164,2.3,2.3,55,0.00,CLR,,0.00,WeatherDisplay:10.37,2013-08-30 00:24:00,
2013-08-29 19:29:00,90.2,72.3,29.89,SSE,163,0.0,2.0,56,0.00,CLR,,0.00,WeatherDisplay:10.37,2013-08-30 00:29:00,
2013-08-29 19:34:00,89.9,72.6,29.89,SSE,164,1.2,1.2,57,0.00,CLR,,0.00,WeatherDisplay:10.37,2013-08-30 00:34:00,
2013-08-29 19:39:00,89.5,73.3,29.89,SSE,164,1.2,1.2,59,0.00,CLR,,0.00,WeatherDisplay:10.37,2013-08-30 00:39:00,
2013-08-29 19:44:00,89.0,73.4,29.89,SSE,164,0.0,1.0,60,0.00,CLR,,0.00,WeatherDisplay:10.37,2013-08-30 00:44:00,
2013-08-29 19:49:00,88.6,73.0,29.89,SSE,164,0.0,0.0,60,0.00,CLR,,0.00,WeatherDisplay:10.37,2013-08-30 00:49:00,
2013-08-29 19:54:00,88.3,72.7,29.90,SSE,164,0.0,0.0,60,0.00,CLR,,0.00,WeatherDisplay:10.37,2013-08-30 00:54:00,
2013-08-29 19:59:00,87.9,73.2,29.90,SSE,164,0.0,1.0,62,0.00,CLR,,0.00,WeatherDisplay:10.37,2013-08-30 00:59:00,
2013-08-29 20:04:00,87.2,73.1,29.90,SSE,164,0.0,0.0,63,0.00,CLR,,0.00,WeatherDisplay:10.37,2013-08-30 01:04:00,
2013-08-29 20:09:00,86.7,73.5,29.90,SSE,164,1.2,1.2,65,0.00,CLR,,0.00,WeatherDisplay:10.37,2013-08-30 01:09:00,
2013-08-29 20:14:00,86.1,73.8,29.90,SSE,164,0.0,1.0,67,0.00,CLR,,0.00,WeatherDisplay:10.37,2013-08-30 01:14:00,
2013-08-29 20:19:00,85.1,73.8,29.90,SSE,164,1.2,1.2,69,0.00,CLR,,0.00,WeatherDisplay:10.37,2013-08-30 01:19:00,
2013-08-29 20:24:00,84.0,73.2,29.90,SSE,164,1.2,1.2,70,0.00,CLR,,0.00,WeatherDisplay:10.37,2013-08-30 01:24:00,
2013-08-29 20:29:00,83.2,72.4,29.90,SSE,164,1.2,1.2,70,0.00,CLR,,0.00,WeatherDisplay:10.37,2013-08-30 01:29:00,
2013-08-29 20:34:00,82.6,72.7,29.90,SSE,164,0.0,0.0,72,0.00,CLR,,0.00,WeatherDisplay:10.37,2013-08-30 01:34:00,
2013-08-29 20:39:00,82.1,72.6,29.90,SSE,164,0.0,1.0,73,0.00,CLR,,0.00,WeatherDisplay:10.37,2013-08-30 01:39:00,
2013-08-29 20:44:00,81.5,72.4,29.90,SSE,164,1.2,1.2,74,0.00,CLR,,0.00,WeatherDisplay:10.37,2013-08-30 01:44:00,
2013-08-29 20:49:00,81.0,72.3,29.90,SSE,164,0.0,0.0,75,0.00,CLR,,0.00,WeatherDisplay:10.37,2013-08-30 01:49:00,
2013-08-29 20:54:00,80.6,72.3,29.90,SSE,164,0.0,0.0,76,0.00,CLR,,0.00,WeatherDisplay:10.37,2013-08-30 01:54:00,
2013-08-29 20:59:00,80.1,71.8,29.90,SSE,164,0.0,0.0,76,0.00,CLR,,0.00,WeatherDisplay:10.37,2013-08-30 01:59:00,
2013-08-29 21:04:00,79.8,71.6,29.91,SSE,164,1.2,1.2,76,0.00,CLR,,0.00,WeatherDisplay:10.37,2013-08-30 02:04:00,
2013-08-29 21:09:00,79.5,71.7,29.90,SSE,164,0.0,1.0,77,0.00,CLR,,0.00,WeatherDisplay:10.37,2013-08-30 02:09:00,
2013-08-29 21:14:00,79.1,71.3,29.91,SSE,164,1.0,1.0,77,0.00,CLR,,0.00,WeatherDisplay:10.37,2013-08-30 02:14:00,
2013-08-29 21:19:00,78.8,71.4,29.91,SSE,164,0.0,0.0,78,0.00,CLR,,0.00,WeatherDisplay:10.37,2013-08-30 02:19:00,
2013-08-29 21:24:00,78.5,71.1,29.91,SSE,164,0.0,1.0,78,0.00,CLR,,0.00,WeatherDisplay:10.37,2013-08-30 02:24:00,
2013-08-29 21:29:00,78.2,71.2,29.91,SSE,164,0.0,0.0,79,0.00,CLR,,0.00,WeatherDisplay:10.37,2013-08-30 02:29:00,
2013-08-29 23:40:00,72.4,69.3,29.90,SSE,164,1.2,1.2,90,0.00,CLR,,0.00,WeatherDisplay:10.37,2013-08-30 04:40:00,
2013-08-29 23:41:00,72.4,69.3,29.90,SSE,164,1.2,1.2,90,0.00,CLR,,0.00,WeatherDisplay:10.37,2013-08-30 04:41:00,
2013-08-29 23:42:00,72.4,69.3,29.90,SSE,164,0.0,0.0,90,0.00,CLR,,0.00,WeatherDisplay:10.37,2013-08-30 04:42:00,
2013-08-29 23:47:00,72.3,69.5,29.90,SSE,164,0.0,0.0,91,0.00,CLR,,0.00,WeatherDisplay:10.37,2013-08-30 04:47:00,
2013-08-29 23:52:00,72.2,69.1,29.90,SSE,164,0.0,0.0,90,0.00,CLR,,0.00,WeatherDisplay:10.37,2013-08-30 04:52:00,
2013-08-29 23:57:00,72.2,69.4,29.90,SSE,164,0.0,0.0,91,0.00,CLR,,0.00,WeatherDisplay:10.37,2013-08-30 04:57:00,